createdAt,value
2019-02-24T00:00:47.516Z,13.85
2019-02-24T00:03:16.471Z,11.83
2019-02-24T00:05:45.345Z,14.13
2019-02-24T00:08:14.188Z,12.95
2019-02-24T00:10:43.067Z,12.47
2019-02-24T00:13:12.024Z,13.85
2019-02-24T00:15:40.925Z,12.30
2019-02-24T00:18:09.885Z,11.63
2019-02-24T00:20:38.804Z,11.50
2019-02-24T00:23:07.631Z,13.30
2019-02-24T00:25:36.532Z,11.78
2019-02-24T00:28:07.347Z,12.10
2019-02-24T00:30:36.112Z,10.63
2019-02-24T00:33:04.969Z,12.20
2019-02-24T00:35:33.837Z,12.47
2019-02-24T00:38:02.714Z,11.70
2019-02-24T00:40:31.715Z,11.22
2019-02-24T00:43:00.589Z,11.85
2019-02-24T00:45:29.399Z,14.10
2019-02-24T00:47:58.315Z,10.28
2019-02-24T00:50:27.102Z,11.05
2019-02-24T00:52:55.885Z,10.50
2019-02-24T00:55:24.734Z,11.78
2019-02-24T00:57:53.685Z,13.08
2019-02-24T01:00:22.636Z,11.03
2019-02-24T01:02:51.524Z,10.30
2019-02-24T01:05:20.408Z,10.90
2019-02-24T01:07:49.388Z,12.15
2019-02-24T01:10:18.209Z,12.47
2019-02-24T01:12:47.091Z,11.00
2019-02-24T01:15:15.890Z,10.85
2019-02-24T01:17:44.742Z,10.75
2019-02-24T01:20:13.535Z,13.25
2019-02-24T01:22:42.416Z,9.85
2019-02-24T01:25:11.258Z,10.30
2019-02-24T01:27:40.074Z,13.43
2019-02-24T01:30:09.855Z,10.65
2019-02-24T01:32:38.639Z,10.53
2019-02-24T01:35:07.871Z,12.25
2019-02-24T01:37:36.685Z,10.30
2019-02-24T01:40:05.747Z,9.58
2019-02-24T01:42:34.744Z,13.13
2019-02-24T01:45:03.635Z,10.50
2019-02-24T01:47:32.445Z,9.53
2019-02-24T01:50:01.248Z,11.93
2019-02-24T01:52:30.137Z,9.73
2019-02-24T01:54:59.049Z,8.53
2019-02-24T01:57:27.929Z,9.03
2019-02-24T01:59:56.727Z,9.53
2019-02-24T02:02:25.562Z,10.20
2019-02-24T02:04:54.461Z,9.75
2019-02-24T02:07:23.250Z,9.18
2019-02-24T02:09:52.083Z,8.23
2019-02-24T02:12:21.002Z,9.40
2019-02-24T02:14:49.902Z,9.73
2019-02-24T02:17:18.718Z,8.93
2019-02-24T02:19:47.590Z,10.38
2019-02-24T02:22:16.477Z,11.60
2019-02-24T02:24:45.320Z,10.20
2019-02-24T02:27:14.139Z,10.78
2019-02-24T02:29:43.012Z,9.18
2019-02-24T02:32:11.959Z,10.63
2019-02-24T02:34:40.871Z,9.18
2019-02-24T02:37:09.819Z,11.30
2019-02-24T02:39:38.771Z,11.12
2019-02-24T02:42:07.618Z,8.75
2019-02-24T02:44:36.515Z,8.98
2019-02-24T02:47:05.341Z,9.13
2019-02-24T02:49:34.206Z,9.45
2019-02-24T02:52:03.009Z,10.68
2019-02-24T02:54:31.836Z,8.88
2019-02-24T02:57:00.695Z,8.38
2019-02-24T02:59:29.636Z,9.05
2019-02-24T03:01:58.447Z,9.23
2019-02-24T03:04:27.230Z,8.13
2019-02-24T03:07:13.749Z,9.55
2019-02-24T03:09:42.582Z,8.35
2019-02-24T03:12:11.339Z,8.40
2019-02-24T03:14:40.213Z,8.48
2019-02-24T03:17:09.120Z,8.68
2019-02-24T03:19:37.916Z,9.55
2019-02-24T03:22:06.424Z,8.20
2019-02-24T03:24:35.378Z,8.28
2019-02-24T03:27:04.224Z,7.78
2019-02-24T03:29:32.996Z,8.90
2019-02-24T03:32:01.883Z,8.43
2019-02-24T03:34:30.701Z,7.67
2019-02-24T03:36:59.592Z,9.68
2019-02-24T03:39:28.474Z,8.40
2019-02-24T03:41:57.333Z,7.90
2019-02-24T03:44:26.349Z,9.73
2019-02-24T03:46:55.242Z,8.28
2019-02-24T03:49:24.191Z,7.85
2019-02-24T03:51:52.955Z,8.70
2019-02-24T03:54:21.792Z,7.75
2019-02-24T03:56:50.643Z,7.45
2019-02-24T03:59:19.537Z,8.83
2019-02-24T04:01:48.376Z,8.55
2019-02-24T04:04:17.168Z,7.60
2019-02-24T04:06:46.069Z,8.20
2019-02-24T04:09:14.962Z,7.45
2019-02-24T04:11:43.784Z,7.08
2019-02-24T04:14:12.540Z,8.43
2019-02-24T04:16:41.316Z,8.05
2019-02-24T04:19:10.208Z,8.28
2019-02-24T04:21:39.060Z,7.53
2019-02-24T04:24:07.840Z,7.33
2019-02-24T04:26:36.740Z,7.75
2019-02-24T04:29:05.548Z,7.72
2019-02-24T04:31:34.348Z,7.08
2019-02-24T04:34:03.200Z,7.58
2019-02-24T04:36:32.085Z,7.95
2019-02-24T04:39:00.835Z,8.00
2019-02-24T04:41:29.648Z,8.45
2019-02-24T04:43:58.497Z,8.05
2019-02-24T04:46:27.315Z,8.13
2019-02-24T04:48:56.176Z,7.75
2019-02-24T04:51:25.005Z,7.17
2019-02-24T04:53:53.900Z,7.15
2019-02-24T04:56:22.777Z,7.42
2019-02-24T04:58:51.581Z,7.58
2019-02-24T05:01:20.429Z,7.55
2019-02-24T05:03:49.308Z,7.60
2019-02-24T05:06:18.068Z,7.12
2019-02-24T05:08:49.868Z,6.92
2019-02-24T05:11:18.662Z,7.22
2019-02-24T05:13:47.565Z,7.83
2019-02-24T05:16:16.439Z,7.42
2019-02-24T05:18:46.834Z,7.42
2019-02-24T05:21:15.663Z,7.83
2019-02-24T05:23:44.530Z,8.18
2019-02-24T05:26:13.374Z,7.08
2019-02-24T05:28:42.212Z,8.48
2019-02-24T05:31:12.048Z,10.35
2019-02-24T05:33:40.820Z,7.37
2019-02-24T05:36:09.699Z,7.20
2019-02-24T05:38:38.562Z,8.03
2019-02-24T05:41:07.414Z,7.97
2019-02-24T05:43:36.198Z,8.25
2019-02-24T05:46:05.125Z,6.55
2019-02-24T05:48:34.004Z,7.17
2019-02-24T05:51:02.806Z,10.75
2019-02-24T05:53:31.541Z,7.72
2019-02-24T05:56:00.396Z,7.75
2019-02-24T05:58:29.206Z,6.00
2019-02-24T06:00:57.997Z,7.12
2019-02-24T06:03:26.959Z,7.90
2019-02-24T06:05:55.765Z,7.03
2019-02-24T06:08:24.631Z,7.37
2019-02-24T06:10:53.389Z,7.05
2019-02-24T06:13:22.351Z,7.00
2019-02-24T06:15:51.107Z,7.62
2019-02-24T06:18:19.950Z,7.67
2019-02-24T06:20:48.799Z,7.05
2019-02-24T06:23:17.757Z,7.00
2019-02-24T06:25:46.630Z,9.23
2019-02-24T06:28:15.525Z,7.53
2019-02-24T06:30:44.289Z,8.43
2019-02-24T06:33:13.167Z,6.80
2019-02-24T06:35:42.026Z,10.25
2019-02-24T06:38:10.916Z,10.65
2019-02-24T06:40:39.808Z,9.43
2019-02-24T06:43:08.683Z,11.57
2019-02-24T06:45:37.582Z,10.53
2019-02-24T06:48:06.375Z,8.00
2019-02-24T06:50:52.753Z,7.25
2019-02-24T06:53:21.688Z,6.87
2019-02-24T06:55:50.472Z,8.65
2019-02-24T06:58:19.299Z,9.15
2019-02-24T07:00:48.198Z,8.83
2019-02-24T07:03:16.942Z,9.30
2019-02-24T07:05:45.788Z,10.38
2019-02-24T07:08:14.687Z,7.58
2019-02-24T07:10:43.634Z,7.90
2019-02-24T07:13:12.566Z,7.00
2019-02-24T07:15:41.325Z,6.60
2019-02-24T07:18:10.215Z,9.70
2019-02-24T07:20:39.053Z,6.90
2019-02-24T07:23:07.869Z,7.47
2019-02-24T07:25:36.798Z,7.78
2019-02-24T07:28:05.598Z,7.20
2019-02-24T07:30:34.496Z,6.97
2019-02-24T07:33:03.411Z,10.65
2019-02-24T07:35:32.301Z,17.02
2019-02-24T07:38:01.225Z,10.65
2019-02-24T07:40:30.203Z,9.28
2019-02-24T07:42:59.088Z,6.70
2019-02-24T07:45:27.973Z,10.43
2019-02-24T07:47:56.830Z,11.90
2019-02-24T07:50:25.596Z,7.58
2019-02-24T07:52:54.651Z,7.37
2019-02-24T07:55:23.584Z,10.40
2019-02-24T07:57:52.700Z,11.83
2019-02-24T08:00:21.695Z,8.05
2019-02-24T08:02:50.600Z,12.75
2019-02-24T08:05:19.582Z,10.18
2019-02-24T08:07:48.614Z,11.75
2019-02-24T08:10:17.487Z,9.90
2019-02-24T08:12:46.462Z,7.08
2019-02-24T08:15:15.386Z,8.93
2019-02-24T08:17:44.302Z,9.53
2019-02-24T08:20:13.309Z,7.25
2019-02-24T08:22:42.275Z,12.70
2019-02-24T08:25:11.145Z,10.43
2019-02-24T08:27:40.113Z,13.75
2019-02-24T08:30:10.177Z,6.83
2019-02-24T08:32:39.031Z,8.68
2019-02-24T08:35:07.963Z,9.68
2019-02-24T08:37:36.950Z,10.18
2019-02-24T08:40:06.086Z,9.78
2019-02-24T08:42:34.973Z,11.43
2019-02-24T08:45:03.945Z,12.37
2019-02-24T08:47:32.837Z,12.45
2019-02-24T08:50:01.841Z,10.90
2019-02-24T08:52:30.731Z,11.25
2019-02-24T08:54:59.586Z,8.95
2019-02-24T08:57:28.537Z,9.13
2019-02-24T08:59:57.492Z,9.88
2019-02-24T09:02:26.429Z,11.08
2019-02-24T09:04:55.258Z,10.65
2019-02-24T09:07:24.146Z,9.83
2019-02-24T09:09:53.180Z,9.60
2019-02-24T09:12:22.196Z,8.88
2019-02-24T09:14:51.180Z,11.15
2019-02-24T09:17:20.132Z,14.03
2019-02-24T09:19:49.100Z,14.78
2019-02-24T09:22:18.075Z,15.23
2019-02-24T09:24:47.154Z,14.23
2019-02-24T09:27:16.078Z,15.63
2019-02-24T09:29:45.065Z,15.38
2019-02-24T09:32:14.098Z,14.55
2019-02-24T09:34:43.023Z,13.15
2019-02-24T09:37:11.915Z,17.98
2019-02-24T09:39:40.886Z,14.78
2019-02-24T09:42:09.786Z,15.40
2019-02-24T09:44:38.952Z,12.98
2019-02-24T09:47:07.982Z,11.48
2019-02-24T09:49:36.953Z,11.03
2019-02-24T09:52:05.880Z,9.90
2019-02-24T09:54:34.849Z,10.45
2019-02-24T09:57:03.850Z,9.85
2019-02-24T09:59:32.805Z,9.68
2019-02-24T10:02:01.690Z,9.65
2019-02-24T10:04:30.591Z,9.18
2019-02-24T10:06:59.569Z,9.60
2019-02-24T10:09:28.642Z,10.18
2019-02-24T10:11:57.686Z,12.13
2019-02-24T10:14:26.606Z,8.20
2019-02-24T10:16:55.570Z,7.87
2019-02-24T10:19:24.540Z,11.50
2019-02-24T10:21:53.599Z,8.88
2019-02-24T10:24:22.564Z,10.90
2019-02-24T10:26:51.764Z,8.58
2019-02-24T10:29:21.232Z,29.63
2019-02-24T10:31:50.266Z,26.07
2019-02-24T10:34:19.357Z,39.20
2019-02-24T10:36:48.334Z,43.48
2019-02-24T10:39:17.537Z,22.48
2019-02-24T10:41:46.565Z,24.20
2019-02-24T10:44:15.469Z,28.47
2019-02-24T10:46:44.375Z,33.80
2019-02-24T10:49:13.195Z,38.17
2019-02-24T10:51:42.101Z,23.95
2019-02-24T10:54:11.045Z,36.55
2019-02-24T10:56:40.025Z,39.30
2019-02-24T10:59:08.916Z,41.02
2019-02-24T11:01:37.856Z,37.23
2019-02-24T11:04:06.845Z,40.58
2019-02-24T11:06:35.781Z,33.30
2019-02-24T11:09:05.383Z,35.00
2019-02-24T11:11:34.217Z,25.30
2019-02-24T11:14:03.133Z,32.75
2019-02-24T11:16:32.275Z,36.98
2019-02-24T11:19:01.323Z,28.73
2019-02-24T11:21:30.307Z,31.20
2019-02-24T11:23:59.230Z,23.62
2019-02-24T11:26:28.174Z,33.63
2019-02-24T11:28:57.132Z,16.82
2019-02-24T11:31:26.060Z,24.90
2019-02-24T11:33:54.964Z,22.90
2019-02-24T11:36:23.874Z,21.12
2019-02-24T11:38:52.858Z,19.98
2019-02-24T11:41:21.864Z,21.33
2019-02-24T11:43:50.678Z,15.38
2019-02-24T11:46:19.637Z,17.52
2019-02-24T11:48:48.645Z,20.25
2019-02-24T11:51:17.607Z,17.92
2019-02-24T11:53:46.711Z,21.00
2019-02-24T11:56:15.929Z,15.95
2019-02-24T11:58:44.873Z,15.30
2019-02-24T12:01:14.035Z,15.93
2019-02-24T12:03:43.059Z,21.40
2019-02-24T12:06:12.189Z,14.63
2019-02-24T12:08:41.240Z,16.67
2019-02-24T12:11:10.269Z,14.98
2019-02-24T12:13:39.258Z,13.32
2019-02-24T12:16:08.467Z,13.58
2019-02-24T12:18:37.538Z,11.33
2019-02-24T12:21:06.535Z,15.18
2019-02-24T12:23:35.502Z,11.68
2019-02-24T12:26:04.688Z,12.50
2019-02-24T12:28:33.646Z,14.15
2019-02-24T12:31:02.496Z,13.13
2019-02-24T12:33:31.413Z,13.30
2019-02-24T12:36:00.581Z,9.10
2019-02-24T12:38:29.547Z,10.20
2019-02-24T12:40:58.916Z,11.10
2019-02-24T12:43:27.854Z,12.70
2019-02-24T12:45:56.718Z,11.50
2019-02-24T12:48:25.858Z,11.88
2019-02-24T12:50:54.789Z,10.60
2019-02-24T12:53:23.808Z,9.78
2019-02-24T12:55:52.904Z,10.35
2019-02-24T12:58:22.029Z,11.93
2019-02-24T13:00:50.996Z,7.45
2019-02-24T13:03:23.980Z,8.88
2019-02-24T13:05:51.158Z,8.23
2019-02-24T13:08:20.176Z,6.75
2019-02-24T13:10:49.265Z,9.28
2019-02-24T13:13:18.232Z,8.23
2019-02-24T13:15:47.209Z,5.80
2019-02-24T13:18:16.265Z,8.75
2019-02-24T13:20:45.157Z,7.62
2019-02-24T13:23:14.159Z,7.83
2019-02-24T13:25:43.149Z,7.10
2019-02-24T13:28:12.120Z,6.92
2019-02-24T13:30:41.118Z,9.03
2019-02-24T13:33:10.069Z,6.53
2019-02-24T13:35:40.661Z,8.03
2019-02-24T13:38:09.696Z,7.58
2019-02-24T13:40:38.674Z,6.92
2019-02-24T13:43:07.589Z,8.85
2019-02-24T13:45:36.496Z,6.55
2019-02-24T13:48:05.438Z,6.80
2019-02-24T13:50:34.502Z,7.60
2019-02-24T13:53:03.464Z,6.45
2019-02-24T13:55:32.529Z,7.10
2019-02-24T13:58:01.412Z,5.22
2019-02-24T14:00:30.354Z,6.87
2019-02-24T14:02:59.176Z,6.97
2019-02-24T14:05:28.431Z,7.15
2019-02-24T14:07:57.509Z,5.90
2019-02-24T14:10:26.391Z,10.35
2019-02-24T14:12:55.431Z,6.33
2019-02-24T14:15:24.241Z,5.22
2019-02-24T14:17:53.316Z,6.50
2019-02-24T14:20:22.211Z,5.97
2019-02-24T14:22:51.023Z,8.13
2019-02-24T14:25:19.883Z,6.65
2019-02-24T14:27:48.813Z,6.22
2019-02-24T14:30:17.766Z,5.20
2019-02-24T14:32:46.906Z,5.08
2019-02-24T14:35:16.109Z,5.40
2019-02-24T14:37:45.082Z,4.03
2019-02-24T14:40:14.128Z,4.42
2019-02-24T14:42:43.151Z,4.15
2019-02-24T14:45:14.307Z,8.13
2019-02-24T14:47:43.245Z,4.22
2019-02-24T14:50:12.406Z,8.25
2019-02-24T14:52:41.373Z,6.15
2019-02-24T14:55:10.421Z,3.70
2019-02-24T14:57:39.328Z,4.50
2019-02-24T15:00:10.234Z,3.90
2019-02-24T15:02:42.404Z,3.58
2019-02-24T15:05:10.452Z,4.87
2019-02-24T15:07:39.836Z,5.42
2019-02-24T15:10:10.583Z,6.97
2019-02-24T15:12:39.557Z,6.37
2019-02-24T15:15:10.402Z,4.17
2019-02-24T15:17:39.310Z,5.22
2019-02-24T15:20:09.819Z,3.85
2019-02-24T15:22:38.825Z,5.03
2019-02-24T15:25:09.369Z,4.28
2019-02-24T15:27:38.363Z,4.20
2019-02-24T15:30:11.026Z,4.35
2019-02-24T15:32:40.031Z,3.80
2019-02-24T15:35:09.202Z,5.85
2019-02-24T15:37:38.093Z,4.90
2019-02-24T15:40:07.668Z,4.58
2019-02-24T15:42:36.649Z,5.22
2019-02-24T15:45:06.046Z,5.67
2019-02-24T15:47:35.082Z,6.55
2019-02-24T15:50:04.086Z,4.25
2019-02-24T15:52:33.318Z,4.75
2019-02-24T15:55:02.360Z,6.30
2019-02-24T15:57:31.532Z,7.37
2019-02-24T16:00:00.838Z,4.67
2019-02-24T16:02:29.694Z,5.08
2019-02-24T16:04:59.090Z,5.60
2019-02-24T16:07:28.287Z,3.42
2019-02-24T16:09:57.110Z,4.33
2019-02-24T16:12:26.211Z,4.65
2019-02-24T16:14:55.314Z,4.60
2019-02-24T16:17:24.361Z,5.33
2019-02-24T16:19:53.821Z,6.37
2019-02-24T16:22:22.703Z,8.80
2019-02-24T16:24:51.807Z,8.98
2019-02-24T16:27:20.961Z,8.65
2019-02-24T16:29:49.894Z,7.20
2019-02-24T16:32:19.134Z,5.80
2019-02-24T16:34:48.147Z,5.30
2019-02-24T16:37:17.061Z,11.35
2019-02-24T16:39:46.315Z,5.47
2019-02-24T16:42:15.505Z,4.90
2019-02-24T16:44:44.529Z,5.10
2019-02-24T16:47:13.628Z,4.53
2019-02-24T16:49:42.670Z,4.72
2019-02-24T16:52:11.879Z,8.18
2019-02-24T16:54:41.678Z,4.40
2019-02-24T16:57:11.560Z,4.97
2019-02-24T16:59:40.850Z,5.35
2019-02-24T17:02:10.160Z,5.72
2019-02-24T17:04:39.517Z,9.10
2019-02-24T17:07:09.098Z,5.95
2019-02-24T17:09:38.545Z,6.47
2019-02-24T17:12:07.854Z,4.35
2019-02-24T17:14:37.185Z,6.42
2019-02-24T17:17:07.310Z,5.67
2019-02-24T17:19:36.458Z,6.33
2019-02-24T17:22:05.579Z,6.05
2019-02-24T17:24:34.526Z,7.42
2019-02-24T17:27:03.656Z,5.83
2019-02-24T17:29:33.113Z,11.20
2019-02-24T17:32:02.274Z,31.75
2019-02-24T17:34:32.158Z,41.08
2019-02-24T17:37:01.598Z,27.48
2019-02-24T17:39:31.682Z,22.50
2019-02-24T17:42:01.026Z,21.95
2019-02-24T17:44:31.015Z,15.15
2019-02-24T17:47:00.225Z,14.90
2019-02-24T17:49:30.682Z,14.35
2019-02-24T17:52:01.071Z,15.80
2019-02-24T17:54:31.549Z,21.17
2019-02-24T17:57:03.673Z,18.42
2019-02-24T17:59:40.198Z,14.87
2019-02-24T18:02:05.602Z,15.55
2019-02-24T18:04:35.288Z,17.23
2019-02-24T18:07:05.856Z,19.17
2019-02-24T18:09:36.151Z,17.42
2019-02-24T18:12:06.557Z,13.53
2019-02-24T18:14:37.003Z,14.10
2019-02-24T18:17:07.157Z,14.25
2019-02-24T18:19:37.646Z,15.63
2019-02-24T18:22:08.280Z,11.43
2019-02-24T18:24:38.406Z,13.93
2019-02-24T18:27:08.868Z,14.73
2019-02-24T18:29:40.673Z,15.32
2019-02-24T18:32:12.766Z,12.53
2019-02-24T18:34:45.295Z,12.03
2019-02-24T18:37:18.441Z,12.68
2019-02-24T18:39:51.866Z,13.18
2019-02-24T18:42:23.998Z,8.95
2019-02-24T18:44:55.157Z,10.97
2019-02-24T18:47:25.615Z,15.00
2019-02-24T18:49:57.283Z,12.33
2019-02-24T18:52:28.344Z,11.22
2019-02-24T18:54:59.863Z,10.50
2019-02-24T18:57:30.707Z,12.40
2019-02-24T19:00:00.887Z,10.70
2019-02-24T19:02:32.692Z,11.93
2019-02-24T19:05:03.048Z,11.12
2019-02-24T19:07:33.907Z,11.80
2019-02-24T19:10:07.361Z,10.68
2019-02-24T19:12:37.600Z,10.23
2019-02-24T19:15:09.299Z,7.83
2019-02-24T19:17:38.997Z,9.58
2019-02-24T19:20:10.230Z,9.73
2019-02-24T19:22:40.416Z,9.38
2019-02-24T19:25:11.473Z,9.23
2019-02-24T19:27:42.282Z,9.48
2019-02-24T19:30:14.016Z,9.63
2019-02-24T19:32:44.791Z,9.00
2019-02-24T19:35:15.973Z,9.35
2019-02-24T19:37:46.698Z,9.70
2019-02-24T19:40:20.580Z,7.08
2019-02-24T19:42:50.839Z,8.60
2019-02-24T19:45:20.622Z,8.58
2019-02-24T19:47:50.909Z,9.15
2019-02-24T19:50:21.472Z,8.50
2019-02-24T19:52:52.133Z,8.25
2019-02-24T19:55:22.666Z,7.85
2019-02-24T19:57:53.139Z,6.62
2019-02-24T20:00:23.550Z,9.18
2019-02-24T20:02:53.439Z,7.92
2019-02-24T20:05:22.991Z,9.20
2019-02-24T20:07:54.767Z,8.53
2019-02-24T20:10:24.192Z,8.20
2019-02-24T20:12:53.733Z,6.03
2019-02-24T20:15:24.399Z,11.28
2019-02-24T20:17:56.823Z,6.90
2019-02-24T20:20:26.613Z,9.10
2019-02-24T20:22:57.260Z,7.55
2019-02-24T20:25:26.954Z,5.90
2019-02-24T20:27:56.272Z,7.70
2019-02-24T20:30:27.467Z,9.95
2019-02-24T20:32:57.001Z,6.83
2019-02-24T20:35:26.809Z,7.37
2019-02-24T20:37:56.226Z,7.37
2019-02-24T20:40:26.110Z,8.18
2019-02-24T20:42:55.767Z,5.03
2019-02-24T20:45:25.643Z,5.17
2019-02-24T20:47:55.485Z,8.43
2019-02-24T20:50:24.836Z,6.35
2019-02-24T20:52:54.114Z,9.38
2019-02-24T20:55:23.570Z,5.83
2019-02-24T20:57:52.956Z,7.97
2019-02-24T21:00:25.277Z,5.65
2019-02-24T21:02:54.807Z,6.75
2019-02-24T21:05:24.497Z,6.78
2019-02-24T21:07:53.521Z,7.45
2019-02-24T21:10:22.694Z,4.87
2019-02-24T21:12:51.892Z,6.10
2019-02-24T21:15:21.204Z,6.33
2019-02-24T21:17:50.665Z,6.20
2019-02-24T21:20:22.132Z,6.40
2019-02-24T21:22:51.565Z,5.22
2019-02-24T21:25:20.824Z,7.00
2019-02-24T21:27:49.867Z,5.12
2019-02-24T21:30:19.338Z,8.03
2019-02-24T21:32:48.558Z,5.87
2019-02-24T21:35:17.671Z,6.42
2019-02-24T21:37:46.618Z,7.60
2019-02-24T21:40:15.764Z,6.50
2019-02-24T21:42:44.786Z,4.62
2019-02-24T21:45:15.835Z,5.20
2019-02-24T21:47:45.320Z,6.10
2019-02-24T21:50:15.358Z,4.60
2019-02-24T21:52:44.337Z,7.40
2019-02-24T21:55:13.402Z,5.40
2019-02-24T21:57:42.368Z,5.70
2019-02-24T22:00:14.539Z,5.10
2019-02-24T22:02:43.563Z,5.57
2019-02-24T22:05:12.583Z,4.62
2019-02-24T22:07:41.568Z,4.60
2019-02-24T22:10:11.003Z,4.00
2019-02-24T22:12:39.881Z,5.75
2019-02-24T22:15:11.037Z,4.67
2019-02-24T22:17:39.990Z,5.75
2019-02-24T22:20:09.296Z,6.78
2019-02-24T22:22:38.213Z,4.30
2019-02-24T22:25:07.228Z,5.65
2019-02-24T22:27:36.056Z,4.97
2019-02-24T22:30:05.135Z,5.47
2019-02-24T22:32:34.118Z,5.12
2019-02-24T22:35:02.903Z,6.60
2019-02-24T22:37:31.844Z,5.40
2019-02-24T22:40:00.764Z,5.08
2019-02-24T22:42:29.646Z,6.03
2019-02-24T22:44:58.535Z,3.72
2019-02-24T22:47:27.362Z,6.03
2019-02-24T22:49:56.156Z,5.12
2019-02-24T22:52:24.996Z,5.75
2019-02-24T22:54:53.827Z,4.20
2019-02-24T22:57:22.657Z,5.60
2019-02-24T22:59:51.541Z,7.58
2019-02-24T23:02:20.839Z,6.62
2019-02-24T23:04:49.659Z,8.40
2019-02-24T23:07:18.407Z,6.50
2019-02-24T23:09:47.326Z,4.83
2019-02-24T23:12:16.291Z,5.25
2019-02-24T23:14:45.218Z,5.30
2019-02-24T23:17:14.125Z,8.58
2019-02-24T23:19:42.909Z,5.53
2019-02-24T23:22:11.821Z,4.25
2019-02-24T23:24:40.586Z,5.92
2019-02-24T23:27:09.428Z,6.78
2019-02-24T23:29:38.342Z,5.15
2019-02-24T23:32:07.191Z,6.47
2019-02-24T23:34:36.099Z,6.87
2019-02-24T23:37:04.912Z,5.25
2019-02-24T23:39:33.747Z,5.58
2019-02-24T23:42:02.492Z,6.70
2019-02-24T23:44:31.416Z,6.03
2019-02-24T23:47:00.185Z,4.47
2019-02-24T23:49:29.106Z,3.80
2019-02-24T23:51:57.918Z,6.50
2019-02-24T23:54:26.697Z,8.40
2019-02-24T23:56:55.417Z,6.60
2019-02-24T23:59:24.250Z,4.90
